createdAt,value
2023-01-27T00:00:05.568Z,61.87
2023-01-27T00:01:04.690Z,58.33
2023-01-27T00:02:04.869Z,59.30
2023-01-27T00:03:05.045Z,77.34
2023-01-27T00:04:05.210Z,59.78
2023-01-27T00:05:05.389Z,59.14
2023-01-27T00:06:06.077Z,74.44
2023-01-27T00:07:06.133Z,59.14
2023-01-27T00:08:05.892Z,57.20
2023-01-27T00:09:06.061Z,80.89
2023-01-27T00:10:06.222Z,59.46
2023-01-27T00:11:06.625Z,77.83
2023-01-27T00:12:08.071Z,61.23
2023-01-27T00:13:07.614Z,80.41
2023-01-27T00:14:07.936Z,70.42
2023-01-27T00:15:07.185Z,61.87
2023-01-27T00:16:07.398Z,58.49
2023-01-27T00:17:07.568Z,85.08
2023-01-27T00:18:08.447Z,64.45
2023-01-27T00:19:07.843Z,70.90
2023-01-27T00:20:08.039Z,75.41
2023-01-27T00:21:08.225Z,58.49
2023-01-27T00:22:09.078Z,58.81
2023-01-27T00:23:09.584Z,80.89
2023-01-27T00:24:08.798Z,78.79
2023-01-27T00:25:09.614Z,58.17
2023-01-27T00:26:09.052Z,73.64
2023-01-27T00:27:10.122Z,57.20
2023-01-27T00:28:11.938Z,58.65
2023-01-27T00:29:10.085Z,61.87
2023-01-27T00:30:10.825Z,60.26
2023-01-27T00:31:10.049Z,58.81
2023-01-27T00:32:10.126Z,83.79
2023-01-27T00:33:11.119Z,82.02
2023-01-27T00:34:10.528Z,70.90
2023-01-27T00:35:10.699Z,59.46
2023-01-27T00:36:12.074Z,61.07
2023-01-27T00:37:11.627Z,63.00
2023-01-27T00:38:13.079Z,75.09
2023-01-27T00:39:11.518Z,60.91
2023-01-27T00:40:12.466Z,77.50
2023-01-27T00:41:12.150Z,57.85
2023-01-27T00:42:11.933Z,58.17
2023-01-27T00:43:12.111Z,80.08
2023-01-27T00:44:12.983Z,69.45
2023-01-27T00:45:12.448Z,60.10
2023-01-27T00:46:12.625Z,79.76
2023-01-27T00:47:12.816Z,64.45
2023-01-27T00:48:13.006Z,61.71
2023-01-27T00:49:13.216Z,62.36
2023-01-27T00:50:13.586Z,59.62
2023-01-27T00:51:13.547Z,60.91
2023-01-27T00:52:13.739Z,62.52
2023-01-27T00:53:15.087Z,58.81
2023-01-27T00:54:15.586Z,58.33
2023-01-27T00:55:14.332Z,60.59
2023-01-27T00:56:14.497Z,62.68
2023-01-27T00:57:14.643Z,60.42
2023-01-27T00:58:14.826Z,58.49
2023-01-27T00:59:15.602Z,57.69
2023-01-27T01:00:16.240Z,73.80
2023-01-27T01:01:15.331Z,58.97
2023-01-27T01:02:16.124Z,58.49
2023-01-27T01:03:16.624Z,58.65
2023-01-27T01:04:16.140Z,79.12
2023-01-27T01:05:16.073Z,74.28
2023-01-27T01:06:16.263Z,62.04
2023-01-27T01:07:16.416Z,61.39
2023-01-27T01:08:16.607Z,58.65
2023-01-27T01:09:17.599Z,60.91
2023-01-27T01:10:17.013Z,58.49
2023-01-27T01:11:17.187Z,60.26
2023-01-27T01:12:17.345Z,61.39
2023-01-27T01:13:17.516Z,76.70
2023-01-27T01:14:17.713Z,61.07
2023-01-27T01:15:17.855Z,69.29
2023-01-27T01:16:18.075Z,61.55
2023-01-27T01:17:18.138Z,61.71
2023-01-27T01:18:19.589Z,62.52
2023-01-27T01:19:18.465Z,64.78
2023-01-27T01:20:19.636Z,61.71
2023-01-27T01:21:18.844Z,63.00
2023-01-27T01:22:19.013Z,64.13
2023-01-27T01:23:20.088Z,75.25
2023-01-27T01:24:19.398Z,64.78
2023-01-27T01:25:20.087Z,76.38
2023-01-27T01:26:19.801Z,64.94
2023-01-27T01:27:20.144Z,62.36
2023-01-27T01:28:21.098Z,77.99
2023-01-27T01:29:22.091Z,76.70
2023-01-27T01:30:20.598Z,61.39
2023-01-27T01:31:20.827Z,70.74
2023-01-27T01:32:21.606Z,72.67
2023-01-27T01:33:23.448Z,70.42
2023-01-27T01:34:21.309Z,65.90
2023-01-27T01:35:22.601Z,63.97
2023-01-27T01:36:22.602Z,73.32
2023-01-27T01:37:21.891Z,66.39
2023-01-27T01:38:22.629Z,65.10
2023-01-27T01:39:22.175Z,77.99
2023-01-27T01:40:25.314Z,88.14
2023-01-27T01:41:22.599Z,63.65
2023-01-27T01:42:22.776Z,73.32
2023-01-27T01:43:22.955Z,70.25
2023-01-27T01:44:23.143Z,77.18
2023-01-27T01:45:24.158Z,75.73
2023-01-27T01:46:24.161Z,72.19
2023-01-27T01:47:23.724Z,73.64
2023-01-27T01:48:23.904Z,65.74
2023-01-27T01:49:24.595Z,90.40
2023-01-27T01:50:24.256Z,90.56
2023-01-27T01:51:24.443Z,63.97
2023-01-27T01:52:25.599Z,79.28
2023-01-27T01:53:25.592Z,65.26
2023-01-27T01:54:24.964Z,65.42
2023-01-27T01:55:25.957Z,62.84
2023-01-27T01:56:25.366Z,75.41
2023-01-27T01:57:25.546Z,78.15
2023-01-27T01:58:26.630Z,71.38
2023-01-27T01:59:26.599Z,66.39
2023-01-27T02:00:28.094Z,66.06
2023-01-27T02:01:26.414Z,70.09
2023-01-27T02:02:27.201Z,75.41
2023-01-27T02:03:26.652Z,63.33
2023-01-27T02:04:26.826Z,62.36
2023-01-27T02:05:27.071Z,97.49
2023-01-27T02:06:29.953Z,64.45
2023-01-27T02:07:27.728Z,77.18
2023-01-27T02:08:27.571Z,65.58
2023-01-27T02:09:27.733Z,62.36
2023-01-27T02:10:27.904Z,89.91
2023-01-27T02:11:28.050Z,62.68
2023-01-27T02:12:28.247Z,78.47
2023-01-27T02:13:29.099Z,66.71
2023-01-27T02:14:28.639Z,81.69
2023-01-27T02:15:28.816Z,61.71
2023-01-27T02:16:29.402Z,61.71
2023-01-27T02:17:29.094Z,63.81
2023-01-27T02:18:29.263Z,66.06
2023-01-27T02:19:29.457Z,63.81
2023-01-27T02:20:29.660Z,82.34
2023-01-27T02:21:30.459Z,73.15
2023-01-27T02:22:30.016Z,88.95
2023-01-27T02:23:30.191Z,74.44
2023-01-27T02:24:31.136Z,79.60
2023-01-27T02:25:30.597Z,76.70
2023-01-27T02:26:31.153Z,76.54
2023-01-27T02:27:30.951Z,73.80
2023-01-27T02:28:31.103Z,83.63
2023-01-27T02:29:31.282Z,68.00
2023-01-27T02:30:32.250Z,73.64
2023-01-27T02:31:33.234Z,83.14
2023-01-27T02:32:31.801Z,78.79
2023-01-27T02:33:32.636Z,75.57
2023-01-27T02:34:33.106Z,77.99
2023-01-27T02:35:33.159Z,73.48
2023-01-27T02:36:32.584Z,66.23
2023-01-27T02:37:32.803Z,80.41
2023-01-27T02:38:33.016Z,82.98
2023-01-27T02:39:33.220Z,81.21
2023-01-27T02:40:33.408Z,90.07
2023-01-27T02:41:33.616Z,80.57
2023-01-27T02:42:34.636Z,91.20
2023-01-27T02:43:34.047Z,82.50
2023-01-27T02:44:34.246Z,68.80
2023-01-27T02:45:34.451Z,80.57
2023-01-27T02:46:35.601Z,69.45
2023-01-27T02:47:34.801Z,95.71
2023-01-27T02:48:34.907Z,70.90
2023-01-27T02:49:35.095Z,80.89
2023-01-27T02:50:35.311Z,80.41
2023-01-27T02:51:36.112Z,78.31
2023-01-27T02:52:37.966Z,80.24
2023-01-27T02:53:35.822Z,74.12
2023-01-27T02:54:36.013Z,64.61
2023-01-27T02:55:36.225Z,73.64
2023-01-27T02:56:36.409Z,77.99
2023-01-27T02:57:38.095Z,82.34
2023-01-27T02:58:36.754Z,64.94
2023-01-27T02:59:37.601Z,76.70
2023-01-27T03:00:37.143Z,77.18
2023-01-27T03:01:38.212Z,88.62
2023-01-27T03:02:37.590Z,70.74
2023-01-27T03:03:37.684Z,89.27
2023-01-27T03:04:38.534Z,76.54
2023-01-27T03:05:38.054Z,80.41
2023-01-27T03:06:38.258Z,66.23
2023-01-27T03:07:38.470Z,65.90
2023-01-27T03:08:39.464Z,78.79
2023-01-27T03:09:38.864Z,79.92
2023-01-27T03:10:39.033Z,83.14
2023-01-27T03:11:40.606Z,62.04
2023-01-27T03:12:39.662Z,83.31
2023-01-27T03:13:39.600Z,73.15
2023-01-27T03:14:39.789Z,68.48
2023-01-27T03:15:41.116Z,85.24
2023-01-27T03:16:40.187Z,68.96
2023-01-27T03:17:41.174Z,68.80
2023-01-27T03:18:42.100Z,79.28
2023-01-27T03:19:40.810Z,79.44
2023-01-27T03:20:40.996Z,79.92
2023-01-27T03:21:41.180Z,73.64
2023-01-27T03:22:42.320Z,73.80
2023-01-27T03:23:42.106Z,67.84
2023-01-27T03:24:43.099Z,80.24
2023-01-27T03:25:41.863Z,85.40
2023-01-27T03:26:42.601Z,77.34
2023-01-27T03:27:43.113Z,74.77
2023-01-27T03:28:42.384Z,85.08
2023-01-27T03:29:43.563Z,77.02
2023-01-27T03:30:42.844Z,70.74
2023-01-27T03:31:42.992Z,79.12
2023-01-27T03:32:44.605Z,83.14
2023-01-27T03:33:43.241Z,63.65
2023-01-27T03:34:43.429Z,82.18
2023-01-27T03:35:43.622Z,83.31
2023-01-27T03:36:44.604Z,74.12
2023-01-27T03:37:44.018Z,71.06
2023-01-27T03:38:44.225Z,81.69
2023-01-27T03:39:44.320Z,66.39
2023-01-27T03:40:45.109Z,70.74
2023-01-27T03:41:44.664Z,80.57
2023-01-27T03:42:44.846Z,63.97
2023-01-27T03:43:45.605Z,82.82
2023-01-27T03:44:45.142Z,78.96
2023-01-27T03:45:45.308Z,77.67
2023-01-27T03:46:46.107Z,83.63
2023-01-27T03:47:47.112Z,80.89
2023-01-27T03:48:45.749Z,81.37
2023-01-27T03:49:45.932Z,79.28
2023-01-27T03:50:46.099Z,80.73
2023-01-27T03:51:46.277Z,80.24
2023-01-27T03:52:46.478Z,78.63
2023-01-27T03:53:46.709Z,78.96
2023-01-27T03:54:48.613Z,78.31
2023-01-27T03:55:47.124Z,82.66
2023-01-27T03:56:48.149Z,80.57
2023-01-27T03:57:47.448Z,69.93
2023-01-27T03:58:48.616Z,83.79
2023-01-27T03:59:49.614Z,79.76
2023-01-27T04:00:48.031Z,91.20
2023-01-27T04:01:48.221Z,82.98
2023-01-27T04:02:48.424Z,80.73
2023-01-27T04:03:48.606Z,76.22
2023-01-27T04:04:48.802Z,84.27
2023-01-27T04:05:49.003Z,83.14
2023-01-27T04:06:49.236Z,79.60
2023-01-27T04:07:50.369Z,77.99
2023-01-27T04:08:49.604Z,82.18
2023-01-27T04:09:50.658Z,89.43
2023-01-27T04:10:51.109Z,83.95
2023-01-27T04:11:50.106Z,78.96
2023-01-27T04:12:50.265Z,82.02
2023-01-27T04:13:50.410Z,84.27
2023-01-27T04:14:51.107Z,81.37
2023-01-27T04:15:50.756Z,81.69
2023-01-27T04:16:52.116Z,82.18
2023-01-27T04:17:51.168Z,83.14
2023-01-27T04:18:52.155Z,80.08
2023-01-27T04:19:51.439Z,80.24
2023-01-27T04:20:51.647Z,83.63
2023-01-27T04:21:51.799Z,84.92
2023-01-27T04:22:52.038Z,83.31
2023-01-27T04:23:52.195Z,81.53
2023-01-27T04:24:52.347Z,86.69
2023-01-27T04:25:52.559Z,81.86
2023-01-27T04:26:53.656Z,81.21
2023-01-27T04:27:52.944Z,81.21
2023-01-27T04:28:53.143Z,83.14
2023-01-27T04:29:53.308Z,83.31
2023-01-27T04:30:53.527Z,83.95
2023-01-27T04:31:53.763Z,82.98
2023-01-27T04:32:54.170Z,82.98
2023-01-27T04:33:54.123Z,83.79
2023-01-27T04:34:56.113Z,81.37
2023-01-27T04:35:54.479Z,81.37
2023-01-27T04:36:54.651Z,85.08
2023-01-27T04:37:54.816Z,85.08
2023-01-27T04:38:55.513Z,86.37
2023-01-27T04:39:55.171Z,82.18
2023-01-27T04:40:56.165Z,84.11
2023-01-27T04:41:56.135Z,84.43
2023-01-27T04:42:55.694Z,83.47
2023-01-27T04:43:55.856Z,84.92
2023-01-27T04:44:56.024Z,84.27
2023-01-27T04:45:56.210Z,86.85
2023-01-27T04:46:58.114Z,84.43
2023-01-27T04:47:57.118Z,82.66
2023-01-27T04:48:57.659Z,82.18
2023-01-27T04:49:56.940Z,83.14
2023-01-27T04:50:57.113Z,82.34
2023-01-27T04:51:58.116Z,82.82
2023-01-27T04:52:57.495Z,85.88
2023-01-27T04:53:57.655Z,86.21
2023-01-27T04:54:57.819Z,84.59
2023-01-27T04:55:59.114Z,83.31
2023-01-27T04:56:58.121Z,84.43
2023-01-27T04:57:58.283Z,82.98
2023-01-27T04:58:58.446Z,83.14
2023-01-27T04:59:59.166Z,84.76
2023-01-27T05:00:59.621Z,84.59
2023-01-27T05:01:59.062Z,85.56
2023-01-27T05:02:59.704Z,87.98
2023-01-27T05:03:59.411Z,86.53
2023-01-27T05:04:59.594Z,82.34
2023-01-27T05:06:02.484Z,82.34
2023-01-27T05:06:59.959Z,83.95
2023-01-27T05:08:00.686Z,83.47
2023-01-27T05:09:00.346Z,83.31
2023-01-27T05:10:00.515Z,83.47
2023-01-27T05:11:01.663Z,79.76
2023-01-27T05:12:00.926Z,82.34
2023-01-27T05:13:01.109Z,85.88
2023-01-27T05:14:03.627Z,86.21
2023-01-27T05:15:01.541Z,86.53
2023-01-27T05:16:02.687Z,82.82
2023-01-27T05:17:02.666Z,81.86
2023-01-27T05:18:01.972Z,84.43
2023-01-27T05:19:02.214Z,83.47
2023-01-27T05:20:02.396Z,85.24
2023-01-27T05:21:02.551Z,83.79
2023-01-27T05:22:02.716Z,83.63
2023-01-27T05:23:02.950Z,84.27
2023-01-27T05:24:03.657Z,84.11
2023-01-27T05:25:03.697Z,81.86
2023-01-27T05:26:03.490Z,94.75
2023-01-27T05:27:03.655Z,81.69
2023-01-27T05:28:03.823Z,82.98
2023-01-27T05:29:05.639Z,82.98
2023-01-27T05:30:05.128Z,83.95
2023-01-27T05:31:04.438Z,86.53
2023-01-27T05:32:05.171Z,87.50
2023-01-27T05:33:04.784Z,82.02
2023-01-27T05:34:04.926Z,85.56
2023-01-27T05:35:05.103Z,82.66
2023-01-27T05:36:06.573Z,82.82
2023-01-27T05:37:07.170Z,82.34
2023-01-27T05:38:26.641Z,82.18
2023-01-27T05:39:07.873Z,83.47
2023-01-27T05:40:06.639Z,85.72
2023-01-27T05:41:06.141Z,87.17
2023-01-27T05:42:06.307Z,83.79
2023-01-27T05:43:07.054Z,95.71
2023-01-27T05:44:06.602Z,88.14
2023-01-27T05:45:07.628Z,82.98
2023-01-27T05:46:06.916Z,82.50
2023-01-27T05:47:07.120Z,81.53
2023-01-27T05:48:08.170Z,85.08
2023-01-27T05:49:07.475Z,85.08
2023-01-27T05:50:08.635Z,85.72
2023-01-27T05:51:07.923Z,82.50
2023-01-27T05:52:08.105Z,87.01
2023-01-27T05:53:08.278Z,81.53
2023-01-27T05:54:08.481Z,81.21
2023-01-27T05:55:08.669Z,83.79
2023-01-27T05:56:09.678Z,85.08
2023-01-27T05:57:09.081Z,83.63
2023-01-27T05:58:10.147Z,84.59
2023-01-27T05:59:09.424Z,83.14
2023-01-27T06:00:09.580Z,88.14
2023-01-27T06:01:09.743Z,82.66
2023-01-27T06:02:09.931Z,82.34
2023-01-27T06:03:10.258Z,81.37
2023-01-27T06:04:10.300Z,81.53
2023-01-27T06:05:10.488Z,83.63
2023-01-27T06:06:11.190Z,85.24
2023-01-27T06:07:10.820Z,83.95
2023-01-27T06:08:10.992Z,83.14
2023-01-27T06:09:12.135Z,87.01
2023-01-27T06:10:11.369Z,82.34
2023-01-27T06:11:11.526Z,88.78
2023-01-27T06:12:12.673Z,87.66
2023-01-27T06:13:11.854Z,84.43
2023-01-27T06:14:12.682Z,98.13
2023-01-27T06:15:13.460Z,83.47
2023-01-27T06:16:12.433Z,83.63
2023-01-27T06:17:13.148Z,82.50
2023-01-27T06:18:12.778Z,83.95
2023-01-27T06:19:13.639Z,86.21
2023-01-27T06:20:13.178Z,83.63
2023-01-27T06:21:13.367Z,83.31
2023-01-27T06:22:13.563Z,83.79
2023-01-27T06:23:13.756Z,82.50
2023-01-27T06:24:14.269Z,84.11
2023-01-27T06:25:14.501Z,82.98
2023-01-27T06:26:15.183Z,83.31
2023-01-27T06:27:14.478Z,83.31
2023-01-27T06:28:28.171Z,86.53
2023-01-27T06:29:17.681Z,83.47
2023-01-27T06:30:15.022Z,85.72
2023-01-27T06:31:16.386Z,84.27
2023-01-27T06:32:15.359Z,82.66
2023-01-27T06:33:16.191Z,81.37
2023-01-27T06:34:15.723Z,83.47
2023-01-27T06:35:16.884Z,82.82
2023-01-27T06:36:16.687Z,85.24
2023-01-27T06:37:16.251Z,81.05
2023-01-27T06:38:16.383Z,79.92
2023-01-27T06:39:16.612Z,84.59
2023-01-27T06:40:17.189Z,83.79
2023-01-27T06:41:17.680Z,79.12
2023-01-27T06:42:17.678Z,82.66
2023-01-27T06:43:19.660Z,82.34
2023-01-27T06:44:18.181Z,89.75
2023-01-27T06:45:17.746Z,88.62
2023-01-27T06:46:17.970Z,97.00
2023-01-27T06:47:19.146Z,90.07
2023-01-27T06:48:18.320Z,85.72
2023-01-27T06:49:19.141Z,81.05
2023-01-27T06:50:18.722Z,89.91
2023-01-27T06:51:18.873Z,88.14
2023-01-27T06:52:19.657Z,88.46
2023-01-27T06:53:19.202Z,81.53
2023-01-27T06:54:19.397Z,85.72
2023-01-27T06:55:19.693Z,90.40
2023-01-27T06:56:19.753Z,82.98
2023-01-27T06:57:19.904Z,82.50
2023-01-27T06:58:20.069Z,93.46
2023-01-27T06:59:20.244Z,91.20
2023-01-27T07:00:21.311Z,83.63
2023-01-27T07:01:22.673Z,84.11
2023-01-27T07:02:20.716Z,84.27
2023-01-27T07:03:21.655Z,86.21
2023-01-27T07:04:21.035Z,84.59
2023-01-27T07:05:22.186Z,90.40
2023-01-27T07:06:21.397Z,83.14
2023-01-27T07:07:21.460Z,88.14
2023-01-27T07:08:22.190Z,87.01
2023-01-27T07:09:22.584Z,88.46
2023-01-27T07:10:22.211Z,83.14
2023-01-27T07:11:22.679Z,86.69
2023-01-27T07:12:22.333Z,84.43
2023-01-27T07:13:22.748Z,86.04
2023-01-27T07:14:23.699Z,84.11
2023-01-27T07:15:22.866Z,83.47
2023-01-27T07:16:23.752Z,83.95
2023-01-27T07:17:23.179Z,88.62
2023-01-27T07:18:23.695Z,84.76
2023-01-27T07:19:24.144Z,88.95
2023-01-27T07:20:23.662Z,86.53
2023-01-27T07:21:24.643Z,82.50
2023-01-27T07:22:24.691Z,83.95
2023-01-27T07:23:24.709Z,84.27
2023-01-27T07:24:25.254Z,89.91
2023-01-27T07:25:24.532Z,82.50
2023-01-27T07:26:25.414Z,80.24
2023-01-27T07:27:25.197Z,87.66
2023-01-27T07:28:24.972Z,85.56
2023-01-27T07:29:25.129Z,83.79
2023-01-27T07:30:25.288Z,84.92
2023-01-27T07:31:26.805Z,84.59
2023-01-27T07:32:27.365Z,83.95
2023-01-27T07:33:28.660Z,85.24
2023-01-27T07:34:26.013Z,86.53
2023-01-27T07:35:26.700Z,88.14
2023-01-27T07:36:27.171Z,81.21
2023-01-27T07:37:26.528Z,82.02
2023-01-27T07:38:27.161Z,86.69
2023-01-27T07:39:26.801Z,84.27
2023-01-27T07:40:27.688Z,84.11
2023-01-27T07:41:27.687Z,85.72
2023-01-27T07:42:27.451Z,82.18
2023-01-27T07:43:27.630Z,81.69
2023-01-27T07:44:28.205Z,84.92
2023-01-27T07:45:28.708Z,81.37
2023-01-27T07:46:28.147Z,84.92
2023-01-27T07:47:29.194Z,83.31
2023-01-27T07:48:28.485Z,85.24
2023-01-27T07:49:28.708Z,85.72
2023-01-27T07:50:28.908Z,83.14
2023-01-27T07:51:29.112Z,87.98
2023-01-27T07:52:30.148Z,93.30
2023-01-27T07:53:29.555Z,86.21
2023-01-27T07:54:30.698Z,81.21
2023-01-27T07:55:30.722Z,81.53
2023-01-27T07:56:30.008Z,83.95
2023-01-27T07:57:30.703Z,84.92
2023-01-27T07:58:30.376Z,84.59
2023-01-27T07:59:31.221Z,88.14
2023-01-27T08:00:30.770Z,82.34
2023-01-27T08:01:31.699Z,84.11
2023-01-27T08:02:31.109Z,84.92
2023-01-27T08:03:32.168Z,86.85
2023-01-27T08:04:35.200Z,88.62
2023-01-27T08:05:34.660Z,82.98
2023-01-27T08:06:31.765Z,80.24
2023-01-27T08:07:32.695Z,85.72
2023-01-27T08:08:33.662Z,83.95
2023-01-27T08:09:32.284Z,83.63
2023-01-27T08:10:33.651Z,82.02
2023-01-27T08:11:33.213Z,86.85
2023-01-27T08:12:33.697Z,88.78
2023-01-27T08:13:33.080Z,82.98
2023-01-27T08:14:34.079Z,81.86
2023-01-27T08:15:33.380Z,84.76
2023-01-27T08:16:34.663Z,86.21
2023-01-27T08:17:33.692Z,84.59
2023-01-27T08:18:33.844Z,86.53
2023-01-27T08:19:34.712Z,84.92
2023-01-27T08:20:34.710Z,85.40
2023-01-27T08:21:35.195Z,81.37
2023-01-27T08:22:34.714Z,82.82
2023-01-27T08:23:36.524Z,83.47
2023-01-27T08:24:35.652Z,96.52
2023-01-27T08:25:36.152Z,84.59
2023-01-27T08:26:36.196Z,82.66
2023-01-27T08:27:35.606Z,84.43
2023-01-27T08:28:37.155Z,83.47
2023-01-27T08:29:35.932Z,87.66
2023-01-27T08:30:37.702Z,88.14
2023-01-27T08:31:38.404Z,85.08
2023-01-27T08:32:37.564Z,83.47
2023-01-27T08:33:37.214Z,82.82
2023-01-27T08:34:36.897Z,88.78
2023-01-27T08:35:37.224Z,89.91
2023-01-27T08:36:38.157Z,89.27
2023-01-27T08:37:37.421Z,83.63
2023-01-27T08:38:39.166Z,82.34
2023-01-27T08:39:37.850Z,82.98
2023-01-27T08:40:38.036Z,86.04
2023-01-27T08:41:38.258Z,86.04
2023-01-27T08:42:38.462Z,82.02
2023-01-27T08:43:38.683Z,80.24
2023-01-27T08:44:38.865Z,83.31
2023-01-27T08:45:39.066Z,88.62
2023-01-27T08:46:40.664Z,81.86
2023-01-27T08:47:39.274Z,90.88
2023-01-27T08:48:39.462Z,95.07
2023-01-27T08:49:40.210Z,80.41
2023-01-27T08:50:39.858Z,84.59
2023-01-27T08:51:40.588Z,97.49
2023-01-27T08:52:40.269Z,82.66
2023-01-27T08:53:41.020Z,83.63
2023-01-27T08:54:40.533Z,81.37
2023-01-27T08:55:40.713Z,89.43
2023-01-27T08:56:41.734Z,88.78
2023-01-27T08:57:41.122Z,93.30
2023-01-27T08:58:41.306Z,84.76
2023-01-27T08:59:42.203Z,92.49
2023-01-27T09:00:42.201Z,87.33
2023-01-27T09:01:41.898Z,82.18
2023-01-27T09:02:44.063Z,79.44
2023-01-27T09:03:42.189Z,86.04
2023-01-27T09:04:43.181Z,82.02
2023-01-27T09:05:42.501Z,82.98
2023-01-27T09:06:42.714Z,84.11
2023-01-27T09:07:43.720Z,82.50
2023-01-27T09:08:43.160Z,86.85
2023-01-27T09:09:43.379Z,81.53
2023-01-27T09:10:44.176Z,82.82
2023-01-27T09:11:43.714Z,85.72
2023-01-27T09:12:43.895Z,83.79
2023-01-27T09:13:44.714Z,83.63
2023-01-27T09:14:44.273Z,81.37
2023-01-27T09:15:44.455Z,81.86
2023-01-27T09:16:44.636Z,90.40
2023-01-27T09:17:45.718Z,81.53
2023-01-27T09:18:45.006Z,86.53
2023-01-27T09:19:45.230Z,84.59
2023-01-27T09:20:46.179Z,82.66
2023-01-27T09:21:47.170Z,87.82
2023-01-27T09:22:45.667Z,87.33
2023-01-27T09:23:46.683Z,81.86
2023-01-27T09:24:46.218Z,86.04
2023-01-27T09:25:46.144Z,82.34
2023-01-27T09:26:46.310Z,83.63
2023-01-27T09:27:46.479Z,86.37
2023-01-27T09:28:46.673Z,82.18
2023-01-27T09:29:46.853Z,84.59
2023-01-27T09:30:47.136Z,82.02
2023-01-27T09:31:47.313Z,86.53
2023-01-27T09:32:47.440Z,85.72
2023-01-27T09:33:49.103Z,84.27
2023-01-27T09:34:48.724Z,81.86
2023-01-27T09:35:48.001Z,86.04
2023-01-27T09:36:48.668Z,81.37
2023-01-27T09:37:48.383Z,84.11
2023-01-27T09:38:49.231Z,81.69
2023-01-27T09:39:49.675Z,79.12
2023-01-27T09:40:48.967Z,82.02
2023-01-27T09:41:49.162Z,84.43
2023-01-27T09:42:50.530Z,87.82
2023-01-27T09:43:49.537Z,82.50
2023-01-27T09:44:50.753Z,84.11
2023-01-27T09:45:49.971Z,85.56
2023-01-27T09:46:50.063Z,82.34
2023-01-27T09:47:50.268Z,83.31
2023-01-27T09:48:50.427Z,85.72
2023-01-27T09:49:51.216Z,86.69
2023-01-27T09:50:50.765Z,82.50
2023-01-27T09:51:51.719Z,82.34
2023-01-27T09:52:51.176Z,81.05
2023-01-27T09:53:52.175Z,83.14
2023-01-27T09:54:51.483Z,89.75
2023-01-27T09:55:52.216Z,80.08
2023-01-27T09:56:52.714Z,90.07
2023-01-27T09:57:52.007Z,83.14
2023-01-27T09:58:53.176Z,94.10
2023-01-27T09:59:52.741Z,91.04
2023-01-27T10:00:53.239Z,82.98
2023-01-27T10:01:52.682Z,83.47
2023-01-27T10:02:52.867Z,84.11
2023-01-27T10:03:53.033Z,86.53
2023-01-27T10:04:53.280Z,84.27
2023-01-27T10:05:53.331Z,83.31
2023-01-27T10:06:55.182Z,88.30
2023-01-27T10:07:53.692Z,86.21
2023-01-27T10:08:53.845Z,92.01
2023-01-27T10:09:54.237Z,81.86
2023-01-27T10:10:55.774Z,83.95
2023-01-27T10:11:54.294Z,91.20
2023-01-27T10:12:54.444Z,81.37
2023-01-27T10:13:55.607Z,86.53
2023-01-27T10:14:54.760Z,82.50
2023-01-27T10:15:55.655Z,84.43
2023-01-27T10:16:58.695Z,83.79
2023-01-27T10:17:55.313Z,88.62
2023-01-27T10:18:56.067Z,83.63
2023-01-27T10:19:56.696Z,82.66
2023-01-27T10:20:56.031Z,88.78
2023-01-27T10:21:58.767Z,83.47
2023-01-27T10:22:57.178Z,84.11
2023-01-27T10:23:56.484Z,82.98
2023-01-27T10:24:57.239Z,85.72
2023-01-27T10:25:57.283Z,84.27
2023-01-27T10:26:57.718Z,82.50
2023-01-27T10:27:57.259Z,84.59
2023-01-27T10:28:58.185Z,82.02
2023-01-27T10:29:57.603Z,89.27
2023-01-27T10:30:59.215Z,90.40
2023-01-27T10:31:58.050Z,95.23
2023-01-27T10:32:58.176Z,96.36
2023-01-27T10:33:58.405Z,83.31
2023-01-27T10:34:58.614Z,83.63
2023-01-27T10:35:59.738Z,91.85
2023-01-27T10:36:59.723Z,88.95
2023-01-27T10:37:59.182Z,83.31
2023-01-27T10:39:00.180Z,86.21
2023-01-27T10:39:59.515Z,82.50
2023-01-27T10:40:59.610Z,84.59
2023-01-27T10:41:59.821Z,88.62
2023-01-27T10:43:00.040Z,91.52
2023-01-27T10:44:00.248Z,83.31
2023-01-27T10:45:01.188Z,82.34
2023-01-27T10:46:01.257Z,82.02
2023-01-27T10:47:00.827Z,83.79
2023-01-27T10:48:00.916Z,85.72
2023-01-27T10:49:01.628Z,85.40
2023-01-27T10:50:01.318Z,84.59
2023-01-27T10:51:01.517Z,100.87
2023-01-27T10:52:02.231Z,84.27
2023-01-27T10:53:01.874Z,85.08
2023-01-27T10:54:02.725Z,81.69
2023-01-27T10:55:02.293Z,83.31
2023-01-27T10:56:02.523Z,82.34
2023-01-27T10:57:03.542Z,84.59
2023-01-27T10:58:03.714Z,88.95
2023-01-27T10:59:04.685Z,81.86
2023-01-27T11:00:41.543Z,84.43
2023-01-27T11:01:20.439Z,80.89
2023-01-27T11:02:05.664Z,84.11
2023-01-27T11:03:04.724Z,96.84
2023-01-27T11:04:04.022Z,84.59
2023-01-27T11:05:04.267Z,82.82
2023-01-27T11:06:04.453Z,87.01
2023-01-27T11:07:05.239Z,98.13
2023-01-27T11:08:04.779Z,82.34
2023-01-27T11:09:05.732Z,84.43
2023-01-27T11:10:05.134Z,85.40
2023-01-27T11:11:05.348Z,85.24
2023-01-27T11:12:06.198Z,83.95
2023-01-27T11:13:05.746Z,84.59
2023-01-27T11:14:06.732Z,83.47
2023-01-27T11:15:06.127Z,83.63
2023-01-27T11:16:06.386Z,97.81
2023-01-27T11:17:06.446Z,82.34
2023-01-27T11:18:06.651Z,84.43
2023-01-27T11:19:06.898Z,85.56
2023-01-27T11:20:07.055Z,82.98
2023-01-27T11:21:07.257Z,82.98
2023-01-27T11:22:08.994Z,87.33
2023-01-27T11:23:08.743Z,82.18
2023-01-27T11:24:08.701Z,82.82
2023-01-27T11:25:08.740Z,81.37
2023-01-27T11:26:08.245Z,81.69
2023-01-27T11:27:09.208Z,81.53
2023-01-27T11:28:09.681Z,83.95
2023-01-27T11:29:08.792Z,82.82
2023-01-27T11:30:09.719Z,81.69
2023-01-27T11:31:10.264Z,92.17
2023-01-27T11:32:09.784Z,84.92
2023-01-27T11:33:10.237Z,85.40
2023-01-27T11:34:09.627Z,82.18
2023-01-27T11:35:10.746Z,87.01
2023-01-27T11:36:09.932Z,85.88
2023-01-27T11:37:10.142Z,83.95
2023-01-27T11:38:15.709Z,80.89
2023-01-27T11:39:12.475Z,83.95
2023-01-27T11:40:11.475Z,81.86
2023-01-27T11:41:10.780Z,80.89
2023-01-27T11:42:10.973Z,87.66
2023-01-27T11:43:11.689Z,82.66
2023-01-27T11:44:13.190Z,84.27
2023-01-27T11:45:11.609Z,82.66
2023-01-27T11:46:11.844Z,83.79
2023-01-27T11:47:11.944Z,109.09
2023-01-27T11:48:12.160Z,84.11
2023-01-27T11:49:12.771Z,84.43
2023-01-27T11:50:13.824Z,86.21
2023-01-27T11:51:14.189Z,83.31
2023-01-27T11:52:12.962Z,84.27
2023-01-27T11:53:13.732Z,82.18
2023-01-27T11:54:13.387Z,82.82
2023-01-27T11:55:14.247Z,82.98
2023-01-27T11:56:15.754Z,82.98
2023-01-27T11:57:16.140Z,86.04
2023-01-27T11:58:14.738Z,83.63
2023-01-27T11:59:15.243Z,84.59
2023-01-27T12:00:14.650Z,84.92
2023-01-27T12:01:15.232Z,81.86
2023-01-27T12:02:14.827Z,83.63
2023-01-27T12:03:14.935Z,83.14
2023-01-27T12:04:15.722Z,86.21
2023-01-27T12:05:15.313Z,83.95
2023-01-27T12:06:16.242Z,83.95
2023-01-27T12:07:16.205Z,83.63
2023-01-27T12:08:16.743Z,82.82
2023-01-27T12:09:16.273Z,81.53
2023-01-27T12:10:20.028Z,83.31
2023-01-27T12:11:18.251Z,82.02
2023-01-27T12:12:17.260Z,84.92
2023-01-27T12:13:16.709Z,84.59
2023-01-27T12:14:16.945Z,82.66
2023-01-27T12:15:17.752Z,85.72
2023-01-27T12:16:17.802Z,83.14
2023-01-27T12:17:18.271Z,82.02
2023-01-27T12:18:17.587Z,82.66
2023-01-27T12:19:17.847Z,83.14
2023-01-27T12:20:17.926Z,83.47
2023-01-27T12:21:18.743Z,85.08
2023-01-27T12:22:18.194Z,83.47
2023-01-27T12:23:18.413Z,82.98
2023-01-27T12:24:20.588Z,83.63
2023-01-27T12:25:18.794Z,84.11
2023-01-27T12:26:18.989Z,82.34
2023-01-27T12:27:19.158Z,84.11
2023-01-27T12:28:20.201Z,82.98
2023-01-27T12:29:20.248Z,81.53
2023-01-27T12:30:19.654Z,85.88
2023-01-27T12:31:20.447Z,83.14
2023-01-27T12:32:20.742Z,80.24
2023-01-27T12:33:20.150Z,86.69
2023-01-27T12:34:20.362Z,81.37
2023-01-27T12:35:21.246Z,91.04
2023-01-27T12:36:20.750Z,108.12
2023-01-27T12:37:20.932Z,82.98
2023-01-27T12:38:22.752Z,82.34
2023-01-27T12:39:21.284Z,82.02
2023-01-27T12:40:23.221Z,83.47
2023-01-27T12:41:22.205Z,81.53
2023-01-27T12:42:21.762Z,82.50
2023-01-27T12:43:22.748Z,82.50
2023-01-27T12:44:22.146Z,83.63
2023-01-27T12:45:22.347Z,81.69
2023-01-27T12:46:22.591Z,82.50
2023-01-27T12:47:22.721Z,85.40
2023-01-27T12:48:23.747Z,82.34
2023-01-27T12:49:23.740Z,83.47
2023-01-27T12:50:23.271Z,83.47
2023-01-27T12:51:24.249Z,83.79
2023-01-27T12:52:23.546Z,83.31
2023-01-27T12:53:25.556Z,82.98
2023-01-27T12:54:25.674Z,83.14